EmailTwitter


Surface observations / United Kingdom / EGTE (03839)

Regions: Quebec | Canada | USA | Europe | France | UK | Elsewhere
Station
Display
Info & Location for EGTE (03839) | Help decoding METAR

Weather Conditions observed on 2017/06/27 at 18:50 UTC at EXETER AIRPORT, UK (EGTE)

Sky conditions: overcast.

Temperature: 17.0 Celsius.

Dewpoint: 14.0 Celsius.

Relative Humidity: 82%

Winds: Southeast at 9 km/h or 5 knots.

Mean Sea level Pressure: 100.30 kilopascals.

Horizontal visibility: 6.21 statute miles or 9.94 kilometers.

Height of the Ceiling: 792 metres ( 2600 feet ).

Coded METAR:

EGTE 271850Z 15005KT 9999 OVC026 17/14 Q1003=